C.s.rainbow — 3EFB2 — position and weather

sailwx.info

Track history (hours):
 
Tides and Currents Weather Stations Pressure Air Temp Water Temp Dewpoint Dewpoint Depression Visibility Wind Speed Wind Dir Waves Ship Positions

C.s.rainbow

Last reported at 2014-Sep-01 22:25 UTC. Time now 2014-Sep-21 18:13 UTC.
Position S 27°06' E 154°00'.
Warning: this ship's position is 19 days out of date.

Length 190 m; draft 11.9 m.

Type: Cargo ship. MMSI: 371986000.

Date/timePositionNaut miles runAvg speedWind from/ knotsBaromVisibWave heightAir tempDewpointWater temp
2014-Sep-01 22:25S 27°06' E 154°00'4210.7
2014-Sep-01 18:28S 27°48' E 154°00'25010.8
2014-Aug-31 19:23S 31°52' E 152°56'911.1
2014-Aug-31 18:33S 32°01' E 152°52'1110.9
2014-Aug-31 17:33S 32°11' E 152°48'1110.8
2014-Aug-31 16:33S 32°21' E 152°44'1110.5
2014-Aug-31 15:33S 32°31' E 152°39'1111.2
2014-Aug-31 14:33S 32°38' E 152°29'1211.8
2014-Aug-31 13:33S 32°46' E 152°18'1212.0
2014-Aug-31 12:33S 32°53' E 152°06'1211.6
2014-Aug-31 11:33S 32°56' E 151°53'6 2.6
2014-Aug-31 09:09S 32°54' E 151°46'0 0.0
2014-Aug-31 08:32S 32°54' E 151°46'0 0.0
2014-Aug-31 07:33S 32°54' E 151°46'0 0.0
2014-Aug-31 02:08S 32°54' E 151°46'0 0.0
2014-Aug-31 01:30S 32°54' E 151°46'0 0.0
2014-Aug-30 23:26S 32°54' E 151°46'0 0.0
2014-Aug-30 21:31S 32°54' E 151°46'0 0.0
2014-Aug-30 16:20S 32°54' E 151°46'0 0.0
2014-Aug-30 13:17S 32°54' E 151°46'0 0.0
2014-Aug-30 12:31S 32°54' E 151°46'0 0.0
2014-Aug-30 11:33S 32°54' E 151°46'0 0.0
2014-Aug-30 10:33S 32°54' E 151°46'0 0.0
2014-Aug-30 04:33S 32°54' E 151°46'1 1.2
2014-Aug-30 03:33S 32°55' E 151°47'7 7.0
2014-Aug-30 02:33S 32°60' E 151°54'5 5.2
2014-Aug-30 01:33S 32°59' E 152°00'4 4.4
2014-Aug-30 00:33S 32°56' E 152°04'5 4.9
2014-Aug-29 23:33S 32°53' E 152°08'1 1.1
2014-Aug-29 22:33S 32°52' E 152°09'3 2.5
2014-Aug-29 21:33S 32°54' E 152°08'3 2.5
2014-Aug-29 20:34S 32°57' E 152°06'3 2.7
2014-Aug-29 19:33S 32°59' E 152°05'3 2.6
2014-Aug-29 18:33S 33°01' E 152°04'3 2.7
2014-Aug-29 17:33S 33°04' E 152°02'3 2.7
2014-Aug-29 16:33S 33°06' E 152°01'2 2.4
2014-Aug-29 15:33S 33°07' E 151°59'5 4.7
2014-Aug-29 14:33S 33°04' E 151°54'3 3.0
2014-Aug-29 13:33S 33°06' E 151°57'3 3.0
2014-Aug-29 12:33S 33°06' E 152°00'3 2.8
2014-Aug-29 11:25S 33°09' E 152°01'5 6.2
2014-Aug-29 10:32S 33°08' E 151°54'4 0.1
2014-Aug-28 01:34S 33°08' E 151°49'1110.7
2014-Aug-28 00:34S 33°09' E 152°02'2 2.4
2014-Aug-27 23:33S 33°10' E 151°59'8 7.0
2014-Aug-27 22:26S 33°06' E 151°51'2 2.0
2014-Aug-27 21:33S 33°06' E 151°53'2 1.9
2014-Aug-27 20:33S 33°05' E 151°56'2 1.9
2014-Aug-27 19:33S 33°04' E 151°57'2 2.0
2014-Aug-27 18:33S 33°04' E 151°60'2 1.9
2014-Aug-27 17:33S 33°03' E 152°02'2 2.1
2014-Aug-27 16:33S 33°03' E 152°04'2 2.3
2014-Aug-27 15:33S 33°03' E 152°07'2 2.4
2014-Aug-27 14:33S 33°03' E 152°10'2 2.4
2014-Aug-27 13:33S 33°03' E 152°13'3 2.5
2014-Aug-27 12:33S 33°04' E 152°16'3 2.8
2014-Aug-27 11:33S 33°04' E 152°19'3 2.5
2014-Aug-27 10:24S 33°04' E 152°23'2 2.7
2014-Aug-27 09:33S 33°04' E 152°25'1 1.1
2014-Aug-27 08:34S 33°03' E 152°25'6 6.4
2014-Aug-27 07:33S 33°04' E 152°18'8 7.7
2014-Aug-27 06:33S 33°06' E 152°09'8 7.6
2014-Aug-27 05:33S 33°09' E 152°00'3 3.5
2014-Aug-27 04:33S 33°11' E 151°57'2 1.8
2014-Aug-27 03:33S 33°13' E 151°59'2 1.8
2014-Aug-27 02:28S 33°14' E 152°00'2 1.8
2014-Aug-27 01:33S 33°15' E 152°02'2 2.0
2014-Aug-27 00:33S 33°16' E 152°03'2 2.0
2014-Aug-26 23:33S 33°18' E 152°05'3 2.1
2014-Aug-26 22:10S 33°19' E 152°08'2 2.4
2014-Aug-26 21:15S 33°19' E 152°11'2 2.2
2014-Aug-26 20:33S 33°19' E 152°13'8 0.3
2014-Aug-25 13:23S 33°22' E 152°03'2 1.5
2014-Aug-25 12:03S 33°20' E 152°04'5 1.7
2014-Aug-25 09:18S 33°16' E 152°07'1211.5
2014-Aug-25 08:18S 33°07' E 151°57'1013.6
2014-Aug-25 07:33S 32°57' E 151°59'1413.6
2014-Aug-25 06:33S 32°50' E 152°13'1413.6
2014-Aug-25 05:33S 32°41' E 152°25'1714.2
2014-Aug-25 04:23S 32°31' E 152°40'2914.3
2014-Aug-25 02:21S 32°03' E 152°51'24713.0
2014-Aug-24 07:19S 28°03' E 153°59'912.0
2014-Aug-24 06:32S 27°54' E 153°60'1212.0
2014-Aug-24 05:33S 27°42' E 154°01'3012.4
2014-Aug-24 03:10S 27°13' E 154°02'610.1
2014-Aug-24 02:34S 27°07' E 153°60'  
Track history (hours):
 
Tides and Currents Weather Stations Pressure Air Temp Water Temp Dewpoint Dewpoint Depression Visibility Wind Speed Wind Dir Waves Ship Positions

C.s.rainbow

Last reported at 2014-Sep-01 22:25 UTC. Time now 2014-Sep-21 18:13 UTC.
Position S 27°06' E 154°00'.
Warning: this ship's position is 19 days out of date.

Length 190 m; draft 11.9 m.

Type: Cargo ship. MMSI: 371986000.

Date/timePositionNaut miles runAvg speedWind from/ knotsBaromVisibWave heightAir tempDewpointWater temp
2014-Sep-01 22:25S 27°06' E 154°00'4210.7
2014-Sep-01 18:28S 27°48' E 154°00'25010.8
2014-Aug-31 19:23S 31°52' E 152°56'911.1
2014-Aug-31 18:33S 32°01' E 152°52'1110.9
2014-Aug-31 17:33S 32°11' E 152°48'1110.8
2014-Aug-31 16:33S 32°21' E 152°44'1110.5
2014-Aug-31 15:33S 32°31' E 152°39'1111.2
2014-Aug-31 14:33S 32°38' E 152°29'1211.8
2014-Aug-31 13:33S 32°46' E 152°18'1212.0
2014-Aug-31 12:33S 32°53' E 152°06'1211.6
2014-Aug-31 11:33S 32°56' E 151°53'6 2.6
2014-Aug-31 09:09S 32°54' E 151°46'0 0.0
2014-Aug-31 08:32S 32°54' E 151°46'0 0.0
2014-Aug-31 07:33S 32°54' E 151°46'0 0.0
2014-Aug-31 02:08S 32°54' E 151°46'0 0.0
2014-Aug-31 01:30S 32°54' E 151°46'0 0.0
2014-Aug-30 23:26S 32°54' E 151°46'0 0.0
2014-Aug-30 21:31S 32°54' E 151°46'0 0.0
2014-Aug-30 16:20S 32°54' E 151°46'0 0.0
2014-Aug-30 13:17S 32°54' E 151°46'0 0.0
2014-Aug-30 12:31S 32°54' E 151°46'0 0.0
2014-Aug-30 11:33S 32°54' E 151°46'0 0.0
2014-Aug-30 10:33S 32°54' E 151°46'0 0.0
2014-Aug-30 04:33S 32°54' E 151°46'1 1.2
2014-Aug-30 03:33S 32°55' E 151°47'7 7.0
2014-Aug-30 02:33S 32°60' E 151°54'5 5.2
2014-Aug-30 01:33S 32°59' E 152°00'4 4.4
2014-Aug-30 00:33S 32°56' E 152°04'5 4.9
2014-Aug-29 23:33S 32°53' E 152°08'1 1.1
2014-Aug-29 22:33S 32°52' E 152°09'3 2.5
2014-Aug-29 21:33S 32°54' E 152°08'3 2.5
2014-Aug-29 20:34S 32°57' E 152°06'3 2.7
2014-Aug-29 19:33S 32°59' E 152°05'3 2.6
2014-Aug-29 18:33S 33°01' E 152°04'3 2.7
2014-Aug-29 17:33S 33°04' E 152°02'3 2.7
2014-Aug-29 16:33S 33°06' E 152°01'2 2.4
2014-Aug-29 15:33S 33°07' E 151°59'5 4.7
2014-Aug-29 14:33S 33°04' E 151°54'3 3.0
2014-Aug-29 13:33S 33°06' E 151°57'3 3.0
2014-Aug-29 12:33S 33°06' E 152°00'3 2.8
2014-Aug-29 11:25S 33°09' E 152°01'5 6.2
2014-Aug-29 10:32S 33°08' E 151°54'4 0.1
2014-Aug-28 01:34S 33°08' E 151°49'1110.7
2014-Aug-28 00:34S 33°09' E 152°02'2 2.4
2014-Aug-27 23:33S 33°10' E 151°59'8 7.0
2014-Aug-27 22:26S 33°06' E 151°51'2 2.0
2014-Aug-27 21:33S 33°06' E 151°53'2 1.9
2014-Aug-27 20:33S 33°05' E 151°56'2 1.9
2014-Aug-27 19:33S 33°04' E 151°57'2 2.0
2014-Aug-27 18:33S 33°04' E 151°60'2 1.9
2014-Aug-27 17:33S 33°03' E 152°02'2 2.1
2014-Aug-27 16:33S 33°03' E 152°04'2 2.3
2014-Aug-27 15:33S 33°03' E 152°07'2 2.4
2014-Aug-27 14:33S 33°03' E 152°10'2 2.4
2014-Aug-27 13:33S 33°03' E 152°13'3 2.5
2014-Aug-27 12:33S 33°04' E 152°16'3 2.8
2014-Aug-27 11:33S 33°04' E 152°19'3 2.5
2014-Aug-27 10:24S 33°04' E 152°23'2 2.7
2014-Aug-27 09:33S 33°04' E 152°25'1 1.1
2014-Aug-27 08:34S 33°03' E 152°25'6 6.4
2014-Aug-27 07:33S 33°04' E 152°18'8 7.7
2014-Aug-27 06:33S 33°06' E 152°09'8 7.6
2014-Aug-27 05:33S 33°09' E 152°00'3 3.5
2014-Aug-27 04:33S 33°11' E 151°57'2 1.8
2014-Aug-27 03:33S 33°13' E 151°59'2 1.8
2014-Aug-27 02:28S 33°14' E 152°00'2 1.8
2014-Aug-27 01:33S 33°15' E 152°02'2 2.0
2014-Aug-27 00:33S 33°16' E 152°03'2 2.0
2014-Aug-26 23:33S 33°18' E 152°05'3 2.1
2014-Aug-26 22:10S 33°19' E 152°08'2 2.4
2014-Aug-26 21:15S 33°19' E 152°11'2 2.2
2014-Aug-26 20:33S 33°19' E 152°13'8 0.3
2014-Aug-25 13:23S 33°22' E 152°03'2 1.5
2014-Aug-25 12:03S 33°20' E 152°04'5 1.7
2014-Aug-25 09:18S 33°16' E 152°07'1211.5
2014-Aug-25 08:18S 33°07' E 151°57'1013.6
2014-Aug-25 07:33S 32°57' E 151°59'1413.6
2014-Aug-25 06:33S 32°50' E 152°13'1413.6
2014-Aug-25 05:33S 32°41' E 152°25'1714.2
2014-Aug-25 04:23S 32°31' E 152°40'2914.3
2014-Aug-25 02:21S 32°03' E 152°51'24713.0
2014-Aug-24 07:19S 28°03' E 153°59'912.0
2014-Aug-24 06:32S 27°54' E 153°60'1212.0
2014-Aug-24 05:33S 27°42' E 154°01'3012.4
2014-Aug-24 03:10S 27°13' E 154°02'610.1
2014-Aug-24 02:34S 27°07' E 153°60'  

Dump ship's entire track history